createdAt,value
2023-02-23T00:01:38.576Z,30.20
2023-02-23T00:04:05.337Z,30.58
2023-02-23T00:06:33.938Z,30.02
2023-02-23T00:09:01.307Z,32.75
2023-02-23T00:11:28.703Z,30.17
2023-02-23T00:13:56.900Z,28.88
2023-02-23T00:16:25.484Z,29.10
2023-02-23T00:18:55.271Z,29.20
2023-02-23T00:21:32.344Z,30.23
2023-02-23T00:24:01.794Z,28.42
2023-02-23T00:26:33.861Z,29.27
2023-02-23T00:29:06.180Z,29.67
2023-02-23T00:31:32.880Z,30.27
2023-02-23T00:34:02.544Z,29.90
2023-02-23T00:36:32.011Z,28.58
2023-02-23T00:39:00.825Z,29.60
2023-02-23T00:41:30.636Z,28.58
2023-02-23T00:44:00.959Z,29.30
2023-02-23T00:46:30.249Z,29.50
2023-02-23T00:48:59.094Z,30.25
2023-02-23T00:51:27.806Z,30.27
2023-02-23T00:53:55.250Z,29.65
2023-02-23T00:56:22.215Z,32.60
2023-02-23T00:58:49.084Z,32.40
2023-02-23T01:01:18.052Z,31.55
2023-02-23T01:03:45.453Z,33.17
2023-02-23T01:06:14.853Z,32.80
2023-02-23T01:08:44.116Z,33.60
2023-02-23T01:11:16.000Z,34.78
2023-02-23T01:13:45.051Z,33.08
2023-02-23T01:16:15.436Z,33.40
2023-02-23T01:18:44.609Z,34.85
2023-02-23T01:21:19.358Z,35.70
2023-02-23T01:23:46.074Z,36.15
2023-02-23T01:26:21.194Z,34.85
2023-02-23T01:28:56.445Z,35.47
2023-02-23T01:31:24.984Z,35.53
2023-02-23T01:33:56.296Z,35.53
2023-02-23T01:36:23.121Z,35.75
2023-02-23T01:38:49.842Z,37.38
2023-02-23T01:41:17.303Z,37.45
2023-02-23T01:44:08.384Z,35.30
2023-02-23T01:46:39.158Z,36.45
2023-02-23T01:49:10.749Z,36.22
2023-02-23T01:51:43.010Z,37.40
2023-02-23T01:54:15.961Z,35.47
2023-02-23T01:56:47.593Z,35.67
2023-02-23T01:59:15.894Z,35.33
2023-02-23T02:01:43.782Z,35.95
2023-02-23T02:04:16.481Z,36.42
2023-02-23T02:06:45.824Z,35.70
2023-02-23T02:09:19.620Z,35.88
2023-02-23T02:11:54.113Z,34.80
2023-02-23T02:14:29.260Z,35.70
2023-02-23T02:17:27.566Z,36.60
2023-02-23T02:20:06.175Z,35.08
2023-02-23T02:22:42.500Z,35.60
2023-02-23T02:25:14.978Z,36.53
2023-02-23T02:27:50.476Z,35.38
2023-02-23T02:30:40.785Z,36.75
2023-02-23T02:33:19.172Z,36.67
2023-02-23T02:36:04.237Z,35.20
2023-02-23T02:41:28.488Z,34.40
2023-02-23T02:44:09.115Z,34.83
2023-02-23T02:46:40.460Z,34.67
2023-02-23T02:49:17.776Z,35.65
2023-02-23T02:52:12.139Z,34.00
2023-02-23T02:54:43.915Z,33.65
2023-02-23T02:57:12.993Z,33.97
2023-02-23T03:00:07.158Z,34.95
2023-02-23T03:02:56.298Z,35.05
2023-02-23T03:05:47.660Z,34.35
2023-02-23T03:09:07.192Z,34.20
2023-02-23T03:11:59.897Z,34.40
2023-02-23T03:15:11.318Z,33.92
2023-02-23T03:18:12.790Z,33.38
2023-02-23T03:21:05.412Z,33.60
2023-02-23T03:24:17.189Z,34.13
2023-02-23T03:27:31.417Z,33.35
2023-02-23T03:30:40.075Z,35.42
2023-02-23T03:33:36.944Z,34.63
2023-02-23T03:36:29.416Z,35.17
2023-02-23T03:39:25.973Z,34.35
2023-02-23T03:42:14.300Z,35.05
2023-02-23T03:45:03.211Z,34.50
2023-02-23T03:47:56.638Z,34.20
2023-02-23T03:50:48.619Z,35.38
2023-02-23T03:53:38.031Z,34.75
2023-02-23T03:56:25.377Z,35.28
2023-02-23T03:59:15.603Z,37.75
2023-02-23T04:02:00.981Z,35.55
2023-02-23T04:04:47.949Z,36.50
2023-02-23T04:07:36.879Z,36.35
2023-02-23T04:10:23.577Z,35.20
2023-02-23T04:13:12.960Z,35.65
2023-02-23T04:15:44.224Z,36.45
2023-02-23T04:18:14.921Z,36.22
2023-02-23T04:20:41.538Z,36.78
2023-02-23T04:23:08.295Z,37.30
2023-02-23T04:25:35.438Z,36.95
2023-02-23T04:28:02.021Z,36.47
2023-02-23T04:30:29.631Z,37.42
2023-02-23T04:32:59.173Z,35.90
2023-02-23T04:35:27.859Z,37.72
2023-02-23T04:37:54.677Z,37.67
2023-02-23T04:40:23.985Z,36.22
2023-02-23T04:42:51.244Z,36.33
2023-02-23T04:45:18.464Z,37.08
2023-02-23T04:47:45.089Z,39.00
2023-02-23T04:50:12.835Z,37.83
2023-02-23T04:52:39.712Z,37.33
2023-02-23T04:55:08.435Z,39.03
2023-02-23T04:57:35.735Z,37.20
2023-02-23T05:00:04.413Z,37.63
2023-02-23T05:02:32.055Z,37.08
2023-02-23T05:04:58.818Z,38.13
2023-02-23T05:07:25.659Z,37.15
2023-02-23T05:09:52.309Z,38.65
2023-02-23T05:12:18.865Z,37.45
2023-02-23T05:14:45.441Z,37.45
2023-02-23T05:17:12.106Z,37.38
2023-02-23T05:19:38.695Z,38.58
2023-02-23T05:22:05.265Z,38.15
2023-02-23T05:24:31.883Z,37.25
2023-02-23T05:26:58.991Z,36.75
2023-02-23T05:29:25.828Z,37.55
2023-02-23T05:31:52.531Z,38.13
2023-02-23T05:34:19.134Z,37.17
2023-02-23T05:36:45.726Z,36.78
2023-02-23T05:39:12.297Z,37.22
2023-02-23T05:41:38.938Z,37.58
2023-02-23T05:44:05.588Z,37.70
2023-02-23T05:46:32.338Z,37.72
2023-02-23T05:49:00.986Z,38.33
2023-02-23T05:51:29.456Z,36.58
2023-02-23T05:53:56.039Z,37.35
2023-02-23T05:56:22.792Z,36.70
2023-02-23T05:58:57.958Z,37.42
2023-02-23T06:01:25.811Z,37.10
2023-02-23T06:03:52.658Z,38.40
2023-02-23T06:06:19.510Z,37.80
2023-02-23T06:08:46.341Z,38.10
2023-02-23T06:11:13.290Z,40.05
2023-02-23T06:13:40.380Z,40.28
2023-02-23T06:16:08.636Z,40.95
2023-02-23T06:18:35.804Z,39.28
2023-02-23T06:21:03.963Z,36.42
2023-02-23T06:23:31.672Z,37.38
2023-02-23T06:25:59.532Z,39.55
2023-02-23T06:28:27.794Z,40.15
2023-02-23T06:30:55.575Z,39.47
2023-02-23T06:33:22.756Z,40.38
2023-02-23T06:35:49.392Z,41.55
2023-02-23T06:38:16.005Z,40.60
2023-02-23T06:40:43.339Z,39.05
2023-02-23T06:43:10.106Z,39.08
2023-02-23T06:45:36.895Z,39.38
2023-02-23T06:48:03.979Z,39.28
2023-02-23T06:50:30.761Z,38.90
2023-02-23T06:52:57.677Z,39.95
2023-02-23T06:55:24.531Z,39.30
2023-02-23T06:57:53.463Z,39.22
2023-02-23T07:00:20.535Z,40.30
2023-02-23T07:02:47.277Z,39.53
2023-02-23T07:05:13.844Z,41.00
2023-02-23T07:07:40.479Z,40.78
2023-02-23T07:10:07.519Z,41.88
2023-02-23T07:12:34.118Z,42.35
2023-02-23T07:15:00.726Z,41.03
2023-02-23T07:17:27.360Z,41.10
2023-02-23T07:19:54.013Z,42.25
2023-02-23T07:22:20.817Z,40.83
2023-02-23T07:24:48.217Z,40.30
2023-02-23T07:27:14.741Z,45.05
2023-02-23T07:29:41.314Z,44.10
2023-02-23T07:32:07.958Z,44.08
2023-02-23T07:34:34.585Z,43.05
2023-02-23T07:37:01.252Z,42.35
2023-02-23T07:39:27.889Z,42.63
2023-02-23T07:41:54.400Z,43.35
2023-02-23T07:44:21.069Z,42.28
2023-02-23T07:46:47.685Z,42.25
2023-02-23T07:49:14.353Z,43.13
2023-02-23T07:51:41.355Z,41.33
2023-02-23T07:54:07.965Z,42.08
2023-02-23T07:56:35.440Z,41.35
2023-02-23T07:59:03.006Z,40.03
2023-02-23T08:01:29.677Z,40.72
2023-02-23T08:03:56.409Z,40.50
2023-02-23T08:06:23.007Z,38.50
2023-02-23T08:08:49.588Z,40.10
2023-02-23T08:11:16.364Z,39.50
2023-02-23T08:13:43.245Z,37.95
2023-02-23T08:16:10.001Z,38.72
2023-02-23T08:18:36.691Z,38.55
2023-02-23T08:21:05.010Z,35.20
2023-02-23T08:23:33.271Z,33.28
2023-02-23T08:26:01.156Z,34.85
2023-02-23T08:28:28.817Z,34.22
2023-02-23T08:30:55.594Z,28.85
2023-02-23T08:33:22.747Z,30.55
2023-02-23T08:35:49.317Z,31.85
2023-02-23T08:38:16.617Z,31.90
2023-02-23T08:40:43.461Z,33.50
2023-02-23T08:43:10.282Z,31.50
2023-02-23T08:45:39.599Z,31.17
2023-02-23T08:48:07.688Z,29.17
2023-02-23T08:50:34.423Z,26.88
2023-02-23T08:53:01.037Z,25.35
2023-02-23T08:55:27.618Z,26.13
2023-02-23T08:57:54.261Z,26.10
2023-02-23T09:00:21.307Z,26.90
2023-02-23T09:02:48.327Z,26.90
2023-02-23T09:05:15.500Z,26.08
2023-02-23T09:07:45.178Z,26.25
2023-02-23T09:10:17.496Z,26.08
2023-02-23T09:12:44.029Z,26.30
2023-02-23T09:15:12.456Z,25.42
2023-02-23T09:17:39.136Z,24.60
2023-02-23T09:20:06.635Z,24.63
2023-02-23T09:22:36.809Z,24.20
2023-02-23T09:25:03.835Z,23.02
2023-02-23T09:27:30.611Z,22.67
2023-02-23T09:29:57.252Z,23.30
2023-02-23T09:32:24.052Z,24.45
2023-02-23T09:34:52.538Z,22.30
2023-02-23T09:37:19.414Z,23.60
2023-02-23T09:39:46.123Z,22.88
2023-02-23T09:42:35.926Z,23.50
2023-02-23T09:45:31.091Z,23.92
2023-02-23T09:48:12.765Z,23.58
2023-02-23T09:50:42.790Z,23.00
2023-02-23T09:53:24.443Z,24.20
2023-02-23T09:55:54.802Z,23.05
2023-02-23T09:58:24.990Z,23.33
2023-02-23T10:01:10.078Z,24.00
2023-02-23T10:04:05.917Z,23.23
2023-02-23T10:06:33.725Z,24.15
2023-02-23T10:09:14.567Z,23.50
2023-02-23T10:12:01.292Z,24.50
2023-02-23T10:14:40.102Z,23.25
2023-02-23T10:17:06.561Z,24.05
2023-02-23T10:19:47.907Z,23.92
2023-02-23T10:22:16.011Z,22.35
2023-02-23T10:24:48.614Z,24.05
2023-02-23T10:27:21.336Z,23.20
2023-02-23T10:30:00.812Z,23.73
2023-02-23T10:32:48.825Z,24.25
2023-02-23T10:35:17.696Z,23.90
2023-02-23T10:37:45.398Z,23.50
2023-02-23T10:40:23.011Z,23.30
2023-02-23T10:42:50.880Z,23.83
2023-02-23T10:45:24.734Z,24.45
2023-02-23T10:48:03.985Z,24.08
2023-02-23T10:50:31.883Z,23.52
2023-02-23T10:53:16.407Z,24.90
2023-02-23T10:55:45.427Z,23.80
2023-02-23T10:58:19.216Z,23.58
2023-02-23T11:01:03.957Z,24.17
2023-02-23T11:03:35.674Z,23.42
2023-02-23T11:06:02.692Z,23.80
2023-02-23T11:08:37.661Z,24.20
2023-02-23T11:11:08.294Z,23.20
2023-02-23T11:13:41.000Z,25.55
2023-02-23T11:16:14.647Z,23.15
2023-02-23T11:18:56.936Z,24.60
2023-02-23T11:21:35.885Z,23.13
2023-02-23T11:24:22.440Z,23.30
2023-02-23T11:26:52.153Z,23.75
2023-02-23T11:29:35.336Z,23.02
2023-02-23T11:32:19.196Z,24.77
2023-02-23T11:34:49.309Z,23.40
2023-02-23T11:37:20.086Z,24.35
2023-02-23T11:40:01.082Z,23.90
2023-02-23T11:42:33.503Z,24.33
2023-02-23T11:45:07.702Z,23.30
2023-02-23T11:47:39.945Z,23.48
2023-02-23T11:50:08.099Z,25.20
2023-02-23T11:52:36.449Z,24.40
2023-02-23T11:55:07.063Z,23.50
2023-02-23T11:57:36.277Z,24.92
2023-02-23T12:00:12.053Z,25.13
2023-02-23T12:02:49.193Z,27.35
2023-02-23T12:05:23.249Z,24.92
2023-02-23T12:08:03.032Z,24.45
2023-02-23T12:10:51.938Z,24.25
2023-02-23T12:13:48.171Z,24.20
2023-02-23T12:16:30.993Z,23.52
2023-02-23T12:19:08.897Z,24.88
2023-02-23T12:21:44.309Z,23.58
2023-02-23T12:24:37.525Z,26.52
2023-02-23T12:27:04.011Z,24.38
2023-02-23T12:29:40.168Z,25.70
2023-02-23T12:32:14.545Z,25.83
2023-02-23T12:34:55.124Z,24.35
2023-02-23T12:37:42.868Z,24.00
2023-02-23T12:40:42.067Z,24.92
2023-02-23T12:43:18.800Z,25.10
2023-02-23T12:45:52.664Z,24.42
2023-02-23T12:48:48.238Z,24.20
2023-02-23T12:51:19.088Z,25.25
2023-02-23T12:53:45.828Z,24.98
2023-02-23T12:56:34.055Z,24.98
2023-02-23T12:59:13.439Z,24.45
2023-02-23T13:02:00.834Z,25.13
2023-02-23T13:05:13.143Z,25.42
2023-02-23T13:08:04.824Z,24.92
2023-02-23T13:10:39.173Z,25.75
2023-02-23T13:13:20.777Z,26.15
2023-02-23T13:16:12.350Z,24.27
2023-02-23T13:19:20.891Z,25.30
2023-02-23T13:22:19.458Z,25.55
2023-02-23T13:24:49.062Z,24.38
2023-02-23T13:27:27.292Z,24.50
2023-02-23T13:29:56.792Z,26.17
2023-02-23T13:32:32.067Z,27.15
2023-02-23T13:35:00.773Z,24.75
2023-02-23T13:37:35.002Z,25.10
2023-02-23T13:40:35.365Z,24.90
2023-02-23T13:43:17.724Z,24.80
2023-02-23T13:46:10.588Z,25.05
2023-02-23T13:48:56.801Z,24.55
2023-02-23T13:51:30.301Z,24.27
2023-02-23T13:54:23.012Z,25.50
2023-02-23T13:56:56.806Z,24.92
2023-02-23T13:59:36.904Z,25.60
2023-02-23T14:02:20.843Z,23.60
2023-02-23T14:04:47.716Z,23.60
2023-02-23T14:07:23.189Z,24.58
2023-02-23T14:10:00.129Z,25.38
2023-02-23T14:12:34.816Z,25.05
2023-02-23T14:15:37.826Z,24.48
2023-02-23T14:18:29.031Z,25.30
2023-02-23T14:21:28.895Z,25.67
2023-02-23T14:24:25.533Z,25.45
2023-02-23T14:27:04.628Z,25.88
2023-02-23T14:29:40.129Z,24.92
2023-02-23T14:32:12.868Z,26.33
2023-02-23T14:35:30.807Z,24.17
2023-02-23T14:38:09.186Z,24.75
2023-02-23T14:40:42.098Z,25.17
2023-02-23T14:43:38.272Z,25.10
2023-02-23T14:46:11.932Z,23.90
2023-02-23T14:48:42.293Z,24.27
2023-02-23T14:51:24.781Z,22.75
2023-02-23T14:53:53.600Z,23.13
2023-02-23T14:56:24.688Z,22.25
2023-02-23T14:58:54.997Z,23.85
2023-02-23T15:01:39.634Z,22.42
2023-02-23T15:04:16.866Z,22.50
2023-02-23T15:06:47.049Z,22.40
2023-02-23T15:09:22.457Z,22.08
2023-02-23T15:11:54.010Z,23.23
2023-02-23T15:14:27.864Z,22.35
2023-02-23T15:16:56.727Z,24.02
2023-02-23T15:19:27.925Z,22.90
2023-02-23T15:21:57.736Z,22.33
2023-02-23T15:24:31.328Z,23.75
2023-02-23T15:26:58.551Z,23.20
2023-02-23T15:29:31.523Z,22.98
2023-02-23T15:32:18.142Z,24.13
2023-02-23T15:34:45.408Z,23.98
2023-02-23T15:37:26.075Z,23.33
2023-02-23T15:40:02.488Z,23.08
2023-02-23T15:42:38.553Z,23.48
2023-02-23T15:45:20.001Z,23.45
2023-02-23T15:47:46.950Z,24.45
2023-02-23T15:50:27.611Z,23.10
2023-02-23T15:53:02.086Z,23.67
2023-02-23T15:55:35.486Z,24.48
2023-02-23T15:58:26.222Z,24.38
2023-02-23T16:01:06.159Z,24.48
2023-02-23T16:03:37.027Z,24.95
2023-02-23T16:06:05.205Z,24.40
2023-02-23T16:08:32.025Z,24.88
2023-02-23T16:11:14.777Z,25.25
2023-02-23T16:13:45.969Z,24.58
2023-02-23T16:16:19.458Z,25.83
2023-02-23T16:18:53.160Z,24.70
2023-02-23T16:21:25.302Z,26.13
2023-02-23T16:23:54.649Z,25.58
2023-02-23T16:26:33.524Z,24.15
2023-02-23T16:29:02.928Z,26.60
2023-02-23T16:31:44.857Z,26.60
2023-02-23T16:34:26.661Z,27.83
2023-02-23T16:37:01.900Z,28.30
2023-02-23T16:39:30.500Z,27.10
2023-02-23T16:42:00.586Z,26.92
2023-02-23T16:44:41.378Z,27.33
2023-02-23T16:47:09.710Z,26.60
2023-02-23T16:49:36.320Z,27.55
2023-02-23T16:52:12.937Z,27.58
2023-02-23T16:54:39.523Z,28.23
2023-02-23T16:57:22.348Z,27.90
2023-02-23T16:59:51.306Z,29.20
2023-02-23T17:02:19.506Z,30.05
2023-02-23T17:04:49.121Z,29.13
2023-02-23T17:07:17.403Z,30.90
2023-02-23T17:09:44.520Z,31.05
2023-02-23T17:12:21.734Z,30.65
2023-02-23T17:14:49.710Z,31.45
2023-02-23T17:17:18.073Z,30.42
2023-02-23T17:19:45.583Z,31.33
2023-02-23T17:22:13.012Z,31.80
2023-02-23T17:24:41.095Z,32.22
2023-02-23T17:27:07.777Z,31.52
2023-02-23T17:29:34.901Z,32.38
2023-02-23T17:32:02.511Z,32.03
2023-02-23T17:34:29.817Z,32.72
2023-02-23T17:36:56.361Z,32.63
2023-02-23T17:39:27.950Z,34.22
2023-02-23T17:41:55.118Z,34.55
2023-02-23T17:44:21.717Z,34.75
2023-02-23T17:46:48.550Z,35.58
2023-02-23T17:49:15.164Z,37.13
2023-02-23T17:51:42.059Z,38.58
2023-02-23T17:54:08.802Z,38.85
2023-02-23T17:56:35.679Z,38.72
2023-02-23T17:59:02.244Z,42.60
2023-02-23T18:01:29.031Z,43.45
2023-02-23T18:03:58.568Z,43.65
2023-02-23T18:06:25.256Z,44.97
2023-02-23T18:08:51.805Z,44.42
2023-02-23T18:11:19.795Z,46.05
2023-02-23T18:13:47.996Z,48.88
2023-02-23T18:16:16.067Z,47.78
2023-02-23T18:18:46.501Z,48.67
2023-02-23T18:21:18.538Z,48.47
2023-02-23T18:23:45.878Z,52.33
2023-02-23T18:26:15.020Z,54.15
2023-02-23T18:28:44.433Z,53.60
2023-02-23T18:31:21.112Z,55.30
2023-02-23T18:33:52.656Z,58.40
2023-02-23T18:36:35.332Z,62.85
2023-02-23T18:39:03.043Z,66.22
2023-02-23T18:41:31.267Z,72.13
2023-02-23T18:44:02.566Z,74.07
2023-02-23T18:46:29.626Z,77.05
2023-02-23T18:48:56.585Z,79.45
2023-02-23T18:51:25.705Z,84.38
2023-02-23T18:53:53.512Z,87.57
2023-02-23T18:56:25.021Z,95.40
2023-02-23T18:59:04.064Z,96.10
2023-02-23T19:01:37.610Z,94.28
2023-02-23T19:04:05.613Z,97.18
2023-02-23T19:06:33.207Z,101.15
2023-02-23T19:09:03.370Z,102.68
2023-02-23T19:11:32.413Z,97.72
2023-02-23T19:14:02.015Z,98.00
2023-02-23T19:16:31.261Z,99.88
2023-02-23T19:18:59.277Z,101.15
2023-02-23T19:21:26.057Z,97.47
2023-02-23T19:23:53.966Z,94.43
2023-02-23T19:26:21.455Z,91.25
2023-02-23T19:28:48.624Z,89.32
2023-02-23T19:31:19.692Z,93.47
2023-02-23T19:33:48.530Z,91.75
2023-02-23T19:36:17.906Z,88.78
2023-02-23T19:38:45.571Z,86.82
2023-02-23T19:41:14.940Z,85.80
2023-02-23T19:43:41.793Z,83.75
2023-02-23T19:46:17.264Z,79.53
2023-02-23T19:48:45.463Z,76.22
2023-02-23T19:51:13.444Z,77.63
2023-02-23T19:53:40.672Z,73.55
2023-02-23T19:56:12.631Z,73.43
2023-02-23T19:58:43.037Z,71.07
2023-02-23T20:01:11.827Z,69.75
2023-02-23T20:03:39.638Z,68.47
2023-02-23T20:06:07.200Z,68.80
2023-02-23T20:08:34.353Z,63.30
2023-02-23T20:11:00.989Z,61.58
2023-02-23T20:13:27.583Z,65.68
2023-02-23T20:16:05.567Z,67.95
2023-02-23T20:18:35.693Z,57.72
2023-02-23T20:21:17.722Z,57.17
2023-02-23T20:23:45.954Z,56.10
2023-02-23T20:26:26.312Z,54.42
2023-02-23T20:28:54.216Z,50.95
2023-02-23T20:31:26.579Z,46.15
2023-02-23T20:33:54.947Z,45.65
2023-02-23T20:36:23.294Z,45.13
2023-02-23T20:38:49.976Z,41.88
2023-02-23T20:41:17.616Z,43.22
2023-02-23T20:43:44.561Z,43.90
2023-02-23T20:46:15.771Z,42.97
2023-02-23T20:48:42.763Z,48.92
2023-02-23T20:51:12.988Z,43.40
2023-02-23T20:53:40.697Z,47.60
2023-02-23T20:56:09.345Z,50.78
2023-02-23T20:58:36.088Z,46.67
2023-02-23T21:01:06.830Z,42.45
2023-02-23T21:03:35.721Z,44.63
2023-02-23T21:06:02.354Z,40.92
2023-02-23T21:08:30.437Z,34.60
2023-02-23T21:10:57.025Z,42.05
2023-02-23T21:13:26.479Z,41.20
2023-02-23T21:16:01.064Z,39.80
2023-02-23T21:18:28.533Z,38.97
2023-02-23T21:20:56.846Z,40.53
2023-02-23T21:23:24.626Z,41.97
2023-02-23T21:25:53.134Z,39.03
2023-02-23T21:28:20.994Z,38.13
2023-02-23T21:30:47.725Z,37.80
2023-02-23T21:33:14.502Z,39.45
2023-02-23T21:35:41.108Z,37.92
2023-02-23T21:38:08.369Z,39.60
2023-02-23T21:40:35.740Z,34.80
2023-02-23T21:43:06.624Z,32.38
2023-02-23T21:45:33.265Z,30.92
2023-02-23T21:47:59.810Z,32.10
2023-02-23T21:50:26.852Z,32.15
2023-02-23T21:52:56.101Z,34.22
2023-02-23T21:55:22.885Z,33.30
2023-02-23T21:57:51.290Z,32.95
2023-02-23T22:00:20.965Z,33.13
2023-02-23T22:02:47.911Z,31.92
2023-02-23T22:05:16.032Z,32.65
2023-02-23T22:07:51.801Z,31.48
2023-02-23T22:10:20.455Z,33.03
2023-02-23T22:12:47.481Z,31.55
2023-02-23T22:15:15.928Z,31.98
2023-02-23T22:17:43.334Z,30.65
2023-02-23T22:20:10.904Z,30.83
2023-02-23T22:22:37.504Z,32.13
2023-02-23T22:25:06.155Z,30.23
2023-02-23T22:27:33.048Z,30.65
2023-02-23T22:30:01.485Z,29.90
2023-02-23T22:32:32.705Z,29.00
2023-02-23T22:35:01.023Z,29.48
2023-02-23T22:37:31.543Z,29.88
2023-02-23T22:40:01.354Z,29.92
2023-02-23T22:42:35.349Z,29.15
2023-02-23T22:45:02.062Z,29.05
2023-02-23T22:47:28.659Z,28.98
2023-02-23T22:49:55.418Z,30.38
2023-02-23T22:52:21.984Z,31.48
2023-02-23T22:54:48.562Z,30.30
2023-02-23T22:57:15.179Z,30.75
2023-02-23T22:59:54.498Z,31.20
2023-02-23T23:02:24.054Z,29.10
2023-02-23T23:04:54.177Z,32.72
2023-02-23T23:07:20.753Z,30.85
2023-02-23T23:09:47.362Z,30.85
2023-02-23T23:12:14.174Z,30.40
2023-02-23T23:14:40.797Z,30.02
2023-02-23T23:17:09.485Z,29.67
2023-02-23T23:19:39.129Z,30.75
2023-02-23T23:22:06.643Z,29.95
2023-02-23T23:24:33.237Z,30.40
2023-02-23T23:27:01.003Z,31.00
2023-02-23T23:29:32.432Z,29.42
2023-02-23T23:32:01.635Z,30.50
2023-02-23T23:34:28.468Z,30.30
2023-02-23T23:36:55.479Z,29.73
2023-02-23T23:39:23.828Z,31.00
2023-02-23T23:41:50.774Z,31.10
2023-02-23T23:44:19.872Z,31.67
2023-02-23T23:46:47.949Z,31.95
2023-02-23T23:49:17.226Z,32.92
2023-02-23T23:51:56.212Z,32.75
2023-02-23T23:54:26.848Z,31.02
2023-02-23T23:56:54.119Z,31.95
2023-02-23T23:59:22.813Z,31.70
